Time;durP1;ratioP1;P1;durP2;ratioP2;P2;SDS_P1;SDS_P2;PMS_P1;PMS_P2;Temp;Humidity;BMP_temperature;BMP_pressure;BME280_temperature;BME280_humidity;BME280_pressure;Samples;Min_cycle;Max_cycle;Signal;HPM_P1;HPM_P2
2023/02/12 00:00:04;;;;;;;69.07;37.93;;;9.10;99.90;;;;;;5073806;28;20433;-57
2023/02/12 00:02:31;;;;;;;72.73;40.30;;;9.10;99.90;;;;;;5074707;28;20433;-57
2023/02/12 00:04:58;;;;;;;66.47;39.17;;;9.10;99.90;;;;;;5073762;28;20468;-57
2023/02/12 00:07:24;;;;;;;70.83;39.03;;;9.10;99.90;;;;;;5074170;28;20433;-58
2023/02/12 00:09:51;;;;;;;72.43;40.40;;;9.10;99.90;;;;;;5073796;28;20449;-58
2023/02/12 00:12:18;;;;;;;75.10;40.60;;;9.10;99.90;;;;;;5074651;28;20460;-58
2023/02/12 00:14:44;;;;;;;63.63;38.20;;;9.10;99.90;;;;;;5073247;28;20481;-57
2023/02/12 00:17:12;;;;;;;74.20;40.47;;;9.10;99.90;;;;;;5073646;28;20459;-57
2023/02/12 00:19:39;;;;;;;64.50;39.70;;;9.20;99.90;;;;;;5073333;28;20803;-58
2023/02/12 00:22:06;;;;;;;68.10;39.53;;;9.20;99.90;;;;;;5073286;28;20945;-58
2023/02/12 00:24:33;;;;;;;64.03;38.63;;;9.20;99.90;;;;;;5073520;28;20472;-57
2023/02/12 00:26:59;;;;;;;71.97;39.93;;;9.20;99.90;;;;;;5073568;28;20457;-58
2023/02/12 00:29:26;;;;;;;70.50;40.40;;;9.20;99.90;;;;;;5073526;28;20457;-58
2023/02/12 00:31:53;;;;;;;70.87;39.90;;;9.10;99.90;;;;;;5073184;28;20456;-58
2023/02/12 00:34:21;;;;;;;69.97;40.17;;;9.10;99.90;;;;;;5073556;28;20492;-58
2023/02/12 00:36:47;;;;;;;77.00;40.97;;;9.10;99.90;;;;;;5073375;28;20798;-58
2023/02/12 00:39:14;;;;;;;71.07;39.00;;;9.10;99.90;;;;;;5072104;28;20486;-57
2023/02/12 00:41:41;;;;;;;65.27;37.50;;;9.10;99.90;;;;;;5073059;28;20448;-57
2023/02/12 00:44:07;;;;;;;70.63;40.67;;;9.10;99.90;;;;;;5073317;28;20456;-57
2023/02/12 00:46:34;;;;;;;66.27;37.57;;;9.10;99.90;;;;;;5073612;28;20452;-57
2023/02/12 00:49:01;;;;;;;70.47;39.43;;;9.10;99.90;;;;;;5073201;28;20469;-57
2023/02/12 00:51:29;;;;;;;63.50;38.10;;;9.10;99.90;;;;;;5073272;28;20460;-58
2023/02/12 00:53:55;;;;;;;70.27;40.20;;;9.10;99.90;;;;;;5073053;28;20444;-58
2023/02/12 00:56:22;;;;;;;67.13;40.33;;;9.00;99.90;;;;;;5073213;28;20436;-57
2023/02/12 00:58:50;;;;;;;74.00;39.77;;;9.00;99.90;;;;;;5072855;28;20817;-58
2023/02/12 01:01:17;;;;;;;62.10;39.00;;;9.00;99.90;;;;;;5073144;28;20455;-58
2023/02/12 01:03:44;;;;;;;63.87;37.47;;;9.10;99.90;;;;;;5072838;28;20971;-58
2023/02/12 01:06:10;;;;;;;61.07;36.30;;;9.10;99.90;;;;;;5073035;28;20468;-57
2023/02/12 01:08:38;;;;;;;64.37;39.07;;;9.10;99.90;;;;;;5073663;28;20463;-58
2023/02/12 01:11:06;;;;;;;61.07;37.70;;;9.10;99.90;;;;;;5073071;28;20457;-58
2023/02/12 01:13:34;;;;;;;61.43;37.57;;;9.20;99.90;;;;;;5073031;28;20460;-58
2023/02/12 01:16:07;;;;;;;58.60;37.40;;;9.10;99.90;;;;;;5072970;28;20484;-58
2023/02/12 01:18:34;;;;;;;60.80;36.50;;;9.10;99.90;;;;;;5073063;28;20479;-58
2023/02/12 01:21:01;;;;;;;64.00;36.27;;;9.10;99.90;;;;;;5072968;28;20479;-58
2023/02/12 01:23:28;;;;;;;63.97;36.43;;;9.20;99.90;;;;;;5072959;28;20429;-58
2023/02/12 01:25:58;;;;;;;65.73;39.67;;;9.20;99.90;;;;;;5072685;28;20467;-58
2023/02/12 01:28:25;;;;;;;68.83;39.70;;;9.20;99.90;;;;;;5072953;28;20436;-58
2023/02/12 01:30:52;;;;;;;64.53;38.20;;;9.20;99.90;;;;;;5072891;28;20444;-58
2023/02/12 01:33:19;;;;;;;59.07;35.83;;;9.20;99.90;;;;;;5072761;28;20455;-58
2023/02/12 01:35:46;;;;;;;62.47;36.80;;;9.20;99.90;;;;;;5073003;28;20579;-58
2023/02/12 01:38:13;;;;;;;59.93;37.20;;;9.10;99.90;;;;;;5072530;28;20455;-58
2023/02/12 01:40:39;;;;;;;64.73;38.60;;;9.10;99.90;;;;;;5072564;28;20466;-58
2023/02/12 01:43:11;;;;;;;60.67;34.23;;;9.20;99.90;;;;;;5072749;28;20771;-58
2023/02/12 01:45:47;;;;;;;52.83;34.10;;;9.20;99.90;;;;;;5072747;28;20492;-58
2023/02/12 01:48:14;;;;;;;55.53;34.23;;;9.20;99.90;;;;;;5073016;28;20471;-58
2023/02/12 01:50:43;;;;;;;61.70;37.53;;;9.20;99.90;;;;;;5075228;28;20847;-58
2023/02/12 01:53:11;;;;;;;55.53;35.00;;;9.20;99.90;;;;;;5076332;28;20459;-58
2023/02/12 01:55:39;;;;;;;58.90;36.30;;;9.20;99.90;;;;;;5076193;28;20826;-58
2023/02/12 01:58:08;;;;;;;51.00;33.10;;;9.20;99.90;;;;;;5076236;28;20467;-58
2023/02/12 02:00:35;;;;;;;52.57;33.63;;;9.20;99.90;;;;;;5075888;28;20940;-58
2023/02/12 02:03:02;;;;;;;54.53;35.37;;;9.20;99.90;;;;;;5076200;28;20444;-58
2023/02/12 02:05:37;;;;;;;59.70;35.30;;;9.20;99.90;;;;;;5076049;28;20472;-58
2023/02/12 02:08:04;;;;;;;61.47;35.70;;;9.20;99.90;;;;;;5076173;28;20436;-58
2023/02/12 02:10:31;;;;;;;57.30;36.37;;;9.20;99.90;;;;;;5075992;28;20652;-58
2023/02/12 02:15:49;;;;;;;61.20;35.30;;;9.20;99.90;;;;;;5075679;28;21023;-59
2023/02/12 02:18:22;;;;;;;55.93;34.33;;;9.20;99.90;;;;;;5076802;28;20433;-58
2023/02/12 02:21:14;;;;;;;62.63;33.90;;;9.20;99.90;;;;;;5075916;28;20425;-58
2023/02/12 02:24:17;;;;;;;58.80;34.07;;;9.10;99.90;;;;;;5075760;28;20452;-58
2023/02/12 02:27:18;;;;;;;51.97;34.40;;;9.20;99.90;;;;;;5045089;28;20441;-58
2023/02/12 02:30:13;;;;;;;52.20;31.00;;;9.20;99.90;;;;;;5074199;28;20435;-58
2023/02/12 02:32:46;;;;;;;55.90;34.50;;;9.20;99.90;;;;;;5073798;28;20425;-58
2023/02/12 02:35:18;;;;;;;50.53;33.10;;;9.20;99.90;;;;;;5074594;28;20484;-58
2023/02/12 02:37:50;;;;;;;51.83;34.23;;;9.20;99.90;;;;;;5075708;28;20797;-58
2023/02/12 02:40:19;;;;;;;58.83;36.00;;;9.20;99.90;;;;;;5075548;28;20433;-57
2023/02/12 02:42:51;;;;;;;53.13;35.33;;;9.20;99.90;;;;;;5075520;28;20452;-58
2023/02/12 02:45:24;;;;;;;62.63;34.87;;;9.20;99.90;;;;;;5075051;28;21001;-57
2023/02/12 02:47:55;;;;;;;63.20;36.93;;;9.20;99.90;;;;;;5075166;28;20469;-58
2023/02/12 02:50:25;;;;;;;58.00;38.07;;;9.20;99.90;;;;;;5075363;28;20441;-58
2023/02/12 02:52:55;;;;;;;64.53;36.90;;;9.20;99.90;;;;;;5076075;28;20449;-58
2023/02/12 02:55:26;;;;;;;54.47;33.97;;;9.20;99.90;;;;;;5075221;28;20488;-58
2023/02/12 02:57:57;;;;;;;58.93;34.07;;;9.20;99.90;;;;;;5075180;28;20428;-58
2023/02/12 03:00:28;;;;;;;58.30;36.90;;;9.20;99.90;;;;;;5075240;28;20439;-58
2023/02/12 03:03:01;;;;;;;60.30;35.87;;;9.20;99.90;;;;;;5074548;28;20793;-58
2023/02/12 03:05:32;;;;;;;56.93;34.30;;;9.20;99.90;;;;;;5075221;28;20472;-57
2023/02/12 03:08:05;;;;;;;57.90;34.30;;;9.20;99.90;;;;;;5075054;28;20433;-58
2023/02/12 03:10:37;;;;;;;57.47;35.90;;;9.20;99.90;;;;;;5074619;28;20444;-58
2023/02/12 03:13:09;;;;;;;58.50;34.80;;;9.20;99.90;;;;;;5075016;28;20425;-58
2023/02/12 03:15:40;;;;;;;52.37;32.50;;;9.20;99.90;;;;;;5074796;28;20488;-58
2023/02/12 03:18:12;;;;;;;52.07;32.73;;;9.10;99.90;;;;;;5074852;28;20828;-58
2023/02/12 03:20:45;;;;;;;55.10;34.00;;;9.10;99.90;;;;;;5074814;28;20436;-58
2023/02/12 03:23:15;;;;;;;51.33;32.77;;;9.20;99.90;;;;;;5075082;28;20494;-58
2023/02/12 03:25:49;;;;;;;48.83;31.53;;;9.20;99.90;;;;;;5074582;28;20471;-58
2023/02/12 03:28:21;;;;;;;66.20;35.00;;;9.20;99.90;;;;;;5075470;28;20436;-58
2023/02/12 03:30:54;;;;;;;66.50;37.93;;;9.20;99.90;;;;;;5074788;28;20428;-58
2023/02/12 03:33:29;;;;;;;66.10;36.53;;;9.10;99.90;;;;;;5074886;28;20440;-58
2023/02/12 03:36:02;;;;;;;60.47;36.20;;;9.10;99.90;;;;;;5075480;28;20583;-58
2023/02/12 03:38:36;;;;;;;65.80;35.30;;;9.10;99.90;;;;;;5074140;28;20475;-58
2023/02/12 03:41:05;;;;;;;58.43;31.67;;;9.10;99.90;;;;;;5074592;28;20439;-58
2023/02/12 03:43:39;;;;;;;57.17;32.90;;;9.10;99.90;;;;;;5074972;28;20441;-58
2023/02/12 03:46:15;;;;;;;59.70;33.10;;;9.10;99.90;;;;;;5075156;28;20468;-58
2023/02/12 03:48:50;;;;;;;64.33;36.20;;;9.00;99.90;;;;;;5074560;28;20845;-59
2023/02/12 03:51:21;;;;;;;62.33;37.83;;;9.10;99.90;;;;;;5074588;28;20449;-59
2023/02/12 03:53:49;;;;;;;64.53;34.73;;;9.10;99.90;;;;;;5074824;28;20438;-59
2023/02/12 03:56:20;;;;;;;72.20;39.33;;;9.10;99.90;;;;;;5074235;28;20496;-59
2023/02/12 03:58:46;;;;;;;75.50;37.50;;;9.10;99.90;;;;;;5074208;28;20905;-59
2023/02/12 04:01:14;;;;;;;67.50;36.60;;;9.10;99.90;;;;;;5075893;28;20490;-59
2023/02/12 04:03:42;;;;;;;71.53;36.57;;;9.10;99.90;;;;;;5074641;28;20452;-58
2023/02/12 04:06:20;;;;;;;79.80;37.80;;;9.10;99.90;;;;;;5075188;28;20460;-59
2023/02/12 04:08:47;;;;;;;65.27;36.80;;;9.10;99.90;;;;;;5074445;28;20460;-59
2023/02/12 04:11:22;;;;;;;66.13;36.30;;;9.10;99.90;;;;;;5075293;28;20448;-58
2023/02/12 04:14:02;;;;;;;71.30;37.37;;;9.10;99.90;;;;;;5076524;28;20432;-58
2023/02/12 04:16:35;;;;;;;73.50;38.27;;;9.10;99.90;;;;;;5077163;28;20472;-58
2023/02/12 04:19:03;;;;;;;68.13;35.60;;;9.10;99.90;;;;;;5076904;28;20917;-59
2023/02/12 04:21:43;;;;;;;74.47;35.67;;;9.10;99.90;;;;;;5078660;28;20449;-58
2023/02/12 04:24:18;;;;;;;67.37;36.03;;;9.10;99.90;;;;;;5079056;28;20471;-58
2023/02/12 04:26:52;;;;;;;72.63;40.03;;;9.10;99.90;;;;;;5079957;28;20937;-57
2023/02/12 04:29:26;;;;;;;72.43;37.20;;;9.10;99.90;;;;;;5080565;28;20421;-58
2023/02/12 04:31:57;;;;;;;72.80;36.90;;;9.10;99.90;;;;;;5074471;28;20429;-57
2023/02/12 04:34:33;;;;;;;68.20;33.97;;;9.10;99.90;;;;;;5073886;28;20641;-57
2023/02/12 04:37:05;;;;;;;60.60;34.77;;;9.10;99.90;;;;;;5073814;28;20479;-58
2023/02/12 04:39:36;;;;;;;68.47;34.57;;;9.10;99.90;;;;;;5073371;28;20812;-58
2023/02/12 04:42:03;;;;;;;72.13;33.60;;;9.00;99.90;;;;;;5073658;28;20928;-58
2023/02/12 04:44:32;;;;;;;65.17;34.63;;;9.10;99.90;;;;;;5073858;28;20468;-58
2023/02/12 04:46:59;;;;;;;57.80;34.23;;;9.10;99.90;;;;;;5073569;28;20444;-58
2023/02/12 04:49:27;;;;;;;58.47;31.77;;;9.10;99.90;;;;;;5074015;28;20444;-58
2023/02/12 04:51:54;;;;;;;58.80;34.13;;;9.10;99.90;;;;;;5073221;28;20463;-58
2023/02/12 04:54:22;;;;;;;63.60;34.17;;;9.10;99.90;;;;;;5073433;28;20478;-57
2023/02/12 04:56:49;;;;;;;58.83;34.73;;;9.00;99.90;;;;;;5073465;28;20489;-58
2023/02/12 04:59:17;;;;;;;64.47;35.00;;;9.00;99.90;;;;;;5073594;28;20445;-58
2023/02/12 05:01:44;;;;;;;56.53;33.67;;;9.00;99.90;;;;;;5073265;28;20436;-58
2023/02/12 05:04:13;;;;;;;70.83;36.50;;;9.00;99.90;;;;;;5073217;28;20452;-57
2023/02/12 05:06:42;;;;;;;63.67;34.83;;;9.00;99.90;;;;;;5073302;28;20445;-58
2023/02/12 05:09:10;;;;;;;59.83;32.37;;;9.00;99.90;;;;;;5073478;28;20445;-58
2023/02/12 05:11:37;;;;;;;66.67;36.07;;;8.90;99.90;;;;;;5072945;28;20452;-58
2023/02/12 05:14:04;;;;;;;66.57;33.37;;;9.00;99.90;;;;;;5073568;28;20457;-58
2023/02/12 05:16:30;;;;;;;77.67;35.13;;;8.90;99.90;;;;;;5073395;28;20490;-58
2023/02/12 05:18:57;;;;;;;66.73;33.47;;;9.00;99.90;;;;;;5073238;28;20502;-58
2023/02/12 05:21:24;;;;;;;55.37;31.47;;;9.00;99.90;;;;;;5074012;28;20779;-58
2023/02/12 05:23:52;;;;;;;62.00;34.90;;;9.00;99.90;;;;;;5073280;28;20460;-58
2023/02/12 05:26:21;;;;;;;66.10;34.50;;;9.00;99.90;;;;;;5077159;28;20559;-58
2023/02/12 05:28:48;;;;;;;56.57;32.00;;;9.00;99.90;;;;;;5077117;28;20441;-58
2023/02/12 05:31:17;;;;;;;62.37;34.57;;;9.00;99.90;;;;;;5077260;28;20440;-58
2023/02/12 05:33:44;;;;;;;62.90;34.13;;;8.90;99.90;;;;;;5076750;28;20463;-58
2023/02/12 05:36:14;;;;;;;56.60;29.07;;;9.00;99.90;;;;;;5077470;28;20480;-58
2023/02/12 05:38:41;;;;;;;56.03;32.47;;;9.00;99.90;;;;;;5077389;28;20445;-58
2023/02/12 05:41:11;;;;;;;58.97;33.67;;;9.00;99.90;;;;;;5077781;28;20444;-58
2023/02/12 05:43:38;;;;;;;63.97;34.90;;;9.00;99.90;;;;;;5077338;28;20433;-58
2023/02/12 05:46:06;;;;;;;55.87;34.23;;;9.00;99.90;;;;;;5076327;28;20469;-59
2023/02/12 05:48:34;;;;;;;63.40;32.50;;;8.90;99.90;;;;;;5076380;28;20834;-58
2023/02/12 05:51:05;;;;;;;56.90;33.40;;;9.00;99.90;;;;;;5076678;28;20432;-59
2023/02/12 05:53:32;;;;;;;73.87;35.27;;;8.90;99.90;;;;;;5076567;28;20456;-60
2023/02/12 05:56:11;;;;;;;60.00;33.07;;;9.00;99.90;;;;;;5076336;28;20488;-58
2023/02/12 05:58:38;;;;;;;59.23;31.60;;;8.90;99.90;;;;;;5077123;28;20432;-58
2023/02/12 06:01:10;;;;;;;54.93;33.93;;;8.90;99.90;;;;;;5076232;28;20456;-58
2023/02/12 06:03:37;;;;;;;51.80;31.60;;;9.00;99.90;;;;;;5076254;28;20436;-58
2023/02/12 06:06:04;;;;;;;61.80;32.83;;;9.00;99.90;;;;;;5076151;28;20464;-58
2023/02/12 06:08:31;;;;;;;56.83;33.47;;;9.00;99.90;;;;;;5075700;28;20964;-58
2023/02/12 06:11:01;;;;;;;51.97;30.83;;;8.90;99.90;;;;;;5076121;28;20443;-58
2023/02/12 06:13:29;;;;;;;51.67;29.37;;;9.00;99.90;;;;;;5076221;28;20484;-58
2023/02/12 06:15:56;;;;;;;51.90;31.17;;;9.00;99.90;;;;;;5075425;28;20999;-58
2023/02/12 06:18:23;;;;;;;61.83;34.30;;;9.00;99.90;;;;;;5075898;28;20436;-58
2023/02/12 06:20:49;;;;;;;66.33;31.17;;;9.00;99.90;;;;;;5075868;28;20444;-58
2023/02/12 06:23:16;;;;;;;56.40;32.00;;;9.00;99.90;;;;;;5075853;28;20444;-58
2023/02/12 06:25:43;;;;;;;52.57;32.10;;;9.00;99.90;;;;;;5076255;28;20969;-58
2023/02/12 06:28:09;;;;;;;54.30;32.90;;;8.90;99.90;;;;;;5075765;28;20455;-58
2023/02/12 06:30:37;;;;;;;64.90;32.73;;;8.90;99.90;;;;;;5075742;28;20456;-58
2023/02/12 06:33:04;;;;;;;50.40;32.30;;;8.90;99.90;;;;;;5075634;28;20453;-58
2023/02/12 06:35:31;;;;;;;55.97;29.83;;;8.90;99.90;;;;;;5074928;28;20465;-58
2023/02/12 06:38:10;;;;;;;48.10;30.20;;;8.90;99.90;;;;;;5074520;28;20964;-58
2023/02/12 06:40:36;;;;;;;50.87;29.30;;;8.90;99.90;;;;;;5075602;28;20432;-58
2023/02/12 06:43:03;;;;;;;53.13;29.90;;;8.90;99.90;;;;;;5075440;28;20463;-58
2023/02/12 06:45:30;;;;;;;55.00;28.60;;;8.90;99.90;;;;;;5075418;28;20464;-58
2023/02/12 06:47:58;;;;;;;48.87;29.97;;;8.90;99.90;;;;;;5075484;28;20457;-58
2023/02/12 06:50:24;;;;;;;49.90;28.73;;;8.90;99.90;;;;;;5075387;28;20452;-58
2023/02/12 06:52:51;;;;;;;47.83;27.83;;;8.90;99.90;;;;;;5075314;28;20448;-58
2023/02/12 06:55:18;;;;;;;58.63;31.83;;;8.80;99.90;;;;;;5075319;28;20469;-58
2023/02/12 06:57:45;;;;;;;57.33;32.50;;;8.80;99.90;;;;;;5074796;28;20999;-58
2023/02/12 07:00:12;;;;;;;51.50;30.90;;;8.80;99.90;;;;;;5074764;28;20453;-59
2023/02/12 07:02:39;;;;;;;63.17;32.70;;;8.80;99.90;;;;;;5074760;28;20799;-59
2023/02/12 07:05:07;;;;;;;53.40;33.63;;;8.80;99.90;;;;;;5075004;28;20479;-59
2023/02/12 07:07:34;;;;;;;53.80;29.47;;;8.80;99.90;;;;;;5074948;28;20457;-59
2023/02/12 07:10:01;;;;;;;51.77;30.07;;;8.80;99.90;;;;;;5074915;28;20448;-59
2023/02/12 07:12:28;;;;;;;52.10;29.20;;;8.80;99.90;;;;;;5074888;28;20531;-58
2023/02/12 07:14:54;;;;;;;48.77;27.23;;;8.80;99.90;;;;;;5074500;28;20847;-59
2023/02/12 07:17:21;;;;;;;46.90;26.67;;;8.80;99.90;;;;;;5074777;28;20488;-59
2023/02/12 07:19:48;;;;;;;52.47;28.33;;;8.80;99.90;;;;;;5074665;28;20453;-59
2023/02/12 07:22:16;;;;;;;53.10;30.10;;;8.80;99.90;;;;;;5074750;28;20448;-58
2023/02/12 07:24:42;;;;;;;53.23;29.97;;;8.80;99.90;;;;;;5074230;28;20476;-59
2023/02/12 07:27:09;;;;;;;58.40;31.00;;;8.80;99.90;;;;;;5074194;28;20821;-56
2023/02/12 07:29:36;;;;;;;53.07;28.63;;;8.90;99.90;;;;;;5074639;28;20824;-58
2023/02/12 07:32:02;;;;;;;58.60;30.90;;;8.80;99.90;;;;;;5074634;28;20425;-57
2023/02/12 07:34:29;;;;;;;53.37;30.47;;;8.90;99.90;;;;;;5074374;28;20464;-57
2023/02/12 07:36:56;;;;;;;59.97;32.23;;;8.90;99.90;;;;;;5074063;28;20852;-57
2023/02/12 07:39:24;;;;;;;54.70;29.67;;;8.90;99.90;;;;;;5074097;28;20913;-57
2023/02/12 07:41:51;;;;;;;40.53;25.57;;;8.90;99.90;;;;;;5074026;28;20940;-57
2023/02/12 07:44:18;;;;;;;50.93;28.27;;;8.90;99.90;;;;;;5074237;28;20476;-57
2023/02/12 07:46:47;;;;;;;57.67;28.90;;;8.90;99.90;;;;;;5074075;28;20433;-57
2023/02/12 07:49:16;;;;;;;56.87;31.63;;;8.90;99.90;;;;;;5073977;28;20481;-57
2023/02/12 07:51:43;;;;;;;58.37;32.10;;;9.00;99.90;;;;;;5074128;28;20471;-57
2023/02/12 07:54:10;;;;;;;55.30;30.17;;;9.00;99.90;;;;;;5073984;28;20452;-57
2023/02/12 07:56:39;;;;;;;47.70;30.40;;;9.00;99.90;;;;;;5073961;28;20867;-57
2023/02/12 07:59:08;;;;;;;44.83;28.70;;;9.00;99.90;;;;;;5073951;28;20459;-57
2023/02/12 08:01:36;;;;;;;49.53;29.00;;;9.00;99.90;;;;;;5073902;28;20445;-57
2023/02/12 08:04:06;;;;;;;49.90;27.93;;;9.10;99.90;;;;;;5073806;28;20460;-57
2023/02/12 08:06:35;;;;;;;56.33;30.17;;;9.10;99.90;;;;;;5073892;28;20433;-58
2023/02/12 08:09:04;;;;;;;60.97;30.63;;;9.10;99.90;;;;;;5073782;28;20514;-57
2023/02/12 08:11:32;;;;;;;50.30;28.90;;;9.10;99.90;;;;;;5074342;28;20452;-58
2023/02/12 08:14:00;;;;;;;43.37;24.47;;;9.20;99.90;;;;;;5073836;28;20497;-57
2023/02/12 08:16:29;;;;;;;61.73;31.80;;;9.20;99.90;;;;;;5073674;28;20489;-58
2023/02/12 08:18:56;;;;;;;51.63;30.03;;;9.20;99.90;;;;;;5073602;28;20467;-58
2023/02/12 08:21:25;;;;;;;60.73;32.17;;;9.20;99.90;;;;;;5073272;28;20817;-57
2023/02/12 08:23:53;;;;;;;56.20;31.90;;;9.30;99.90;;;;;;5073259;28;20453;-58
2023/02/12 08:26:22;;;;;;;66.87;32.73;;;9.30;99.90;;;;;;5073591;28;20425;-59
2023/02/12 08:28:52;;;;;;;57.83;31.23;;;9.30;99.90;;;;;;5067324;28;20833;-57
2023/02/12 08:31:22;;;;;;;56.00;30.80;;;9.30;99.90;;;;;;5073003;28;20460;-57
2023/02/12 08:33:50;;;;;;;55.37;33.97;;;9.40;99.90;;;;;;5057836;28;20445;-57
2023/02/12 08:36:19;;;;;;;50.50;30.70;;;9.40;99.90;;;;;;5062741;28;20477;-57
2023/02/12 08:38:47;;;;;;;60.53;34.70;;;9.50;99.90;;;;;;5064252;28;20460;-57
2023/02/12 08:41:16;;;;;;;55.80;33.30;;;9.50;99.90;;;;;;5073420;28;20449;-58
2023/02/12 08:43:43;;;;;;;65.27;34.60;;;9.50;99.90;;;;;;5073270;28;20832;-57
2023/02/12 08:46:12;;;;;;;61.83;34.87;;;9.60;99.90;;;;;;5073198;28;20477;-58
2023/02/12 08:48:41;;;;;;;62.20;34.70;;;9.60;99.90;;;;;;5072979;28;20460;-58
2023/02/12 08:51:09;;;;;;;67.97;35.90;;;9.60;99.90;;;;;;5073284;28;20456;-58
2023/02/12 08:53:37;;;;;;;65.50;37.87;;;9.70;99.90;;;;;;5073396;28;20480;-59
2023/02/12 08:56:05;;;;;;;63.87;38.57;;;9.70;99.90;;;;;;5073044;28;20472;-58
2023/02/12 08:58:32;;;;;;;60.67;32.73;;;9.70;99.90;;;;;;5073714;28;20527;-58
2023/02/12 09:00:58;;;;;;;49.87;30.43;;;9.80;99.90;;;;;;5076820;28;20425;-58
2023/02/12 09:03:25;;;;;;;59.67;34.60;;;9.80;99.90;;;;;;5077233;28;20444;-58
2023/02/12 09:05:53;;;;;;;57.33;33.80;;;9.80;99.90;;;;;;5077396;28;20469;-58
2023/02/12 09:08:20;;;;;;;70.63;34.57;;;9.90;99.90;;;;;;5077429;28;20440;-58
2023/02/12 09:10:47;;;;;;;58.80;33.50;;;9.90;99.90;;;;;;5077297;28;20437;-58
2023/02/12 09:13:14;;;;;;;59.37;37.63;;;9.90;99.90;;;;;;5076846;28;20960;-58
2023/02/12 09:15:42;;;;;;;70.83;40.67;;;9.90;99.90;;;;;;5077380;28;20464;-58
2023/02/12 09:18:10;;;;;;;67.07;41.27;;;9.90;99.90;;;;;;5077176;28;20469;-58
2023/02/12 09:20:39;;;;;;;58.60;37.80;;;10.00;99.90;;;;;;5077439;28;20428;-58
2023/02/12 09:23:07;;;;;;;62.83;37.80;;;10.00;99.90;;;;;;5077158;28;20588;-58
2023/02/12 09:25:35;;;;;;;66.70;41.07;;;10.00;99.90;;;;;;5077230;28;20475;-58
2023/02/12 09:28:02;;;;;;;60.50;37.90;;;10.10;99.90;;;;;;5076960;28;20449;-58
2023/02/12 09:30:29;;;;;;;62.33;37.00;;;10.10;99.90;;;;;;5076924;28;20448;-58
2023/02/12 09:32:55;;;;;;;58.70;35.70;;;10.10;99.90;;;;;;5076615;28;20947;-59
2023/02/12 09:35:23;;;;;;;63.30;37.77;;;10.10;99.90;;;;;;5077196;28;20465;-58
2023/02/12 09:37:50;;;;;;;57.13;36.23;;;10.10;99.90;;;;;;5077044;28;20468;-59
2023/02/12 09:40:21;;;;;;;58.57;35.83;;;10.20;99.90;;;;;;5077086;28;20452;-58
2023/02/12 09:43:02;;;;;;;59.73;37.10;;;10.20;99.90;;;;;;5076953;28;20884;-58
2023/02/12 09:45:35;;;;;;;60.87;40.27;;;10.20;99.90;;;;;;5077549;28;20460;-58
2023/02/12 09:48:15;;;;;;;59.57;38.70;;;10.20;99.90;;;;;;5077005;28;20452;-58
2023/02/12 09:50:48;;;;;;;56.30;35.13;;;10.20;99.90;;;;;;5077149;28;20436;-58
2023/02/12 09:53:18;;;;;;;58.60;35.27;;;10.30;99.90;;;;;;5076906;28;20428;-58
2023/02/12 09:55:46;;;;;;;60.73;33.93;;;10.30;99.90;;;;;;5076856;28;20464;-58
2023/02/12 09:58:16;;;;;;;57.73;35.20;;;10.40;99.90;;;;;;5076571;28;20496;-58
2023/02/12 10:00:44;;;;;;;55.83;36.03;;;10.40;99.90;;;;;;5076632;28;20433;-58
2023/02/12 10:03:15;;;;;;;63.57;33.87;;;10.40;99.90;;;;;;5076894;28;20437;-58
2023/02/12 10:05:46;;;;;;;60.93;38.20;;;10.50;99.90;;;;;;5076514;28;21007;-58
2023/02/12 10:08:34;;;;;;;58.57;35.73;;;10.50;99.90;;;;;;5076627;28;20437;-58
2023/02/12 10:11:17;;;;;;;53.23;33.70;;;10.60;99.90;;;;;;5076505;28;20437;-58
2023/02/12 10:13:54;;;;;;;61.60;36.63;;;10.60;99.90;;;;;;5077034;28;20429;-58
2023/02/12 10:16:34;;;;;;;61.23;35.97;;;10.70;99.90;;;;;;5077500;28;20436;-58
2023/02/12 10:19:14;;;;;;;62.37;37.90;;;10.70;99.90;;;;;;5077190;28;20428;-58
2023/02/12 10:21:50;;;;;;;58.17;36.80;;;10.70;99.90;;;;;;5077201;28;20433;-58
2023/02/12 10:24:42;;;;;;;64.77;38.50;;;10.70;99.90;;;;;;5076496;28;20472;-58
2023/02/12 10:27:15;;;;;;;67.00;39.80;;;10.80;99.90;;;;;;5077648;28;20429;-58
2023/02/12 10:29:43;;;;;;;65.00;37.83;;;10.80;99.90;;;;;;5077819;28;20443;-58
2023/02/12 10:32:18;;;;;;;59.60;38.30;;;10.90;99.90;;;;;;5077182;28;20438;-58
2023/02/12 10:34:45;;;;;;;61.60;38.50;;;10.90;99.90;;;;;;5077989;28;20459;-58
2023/02/12 10:37:22;;;;;;;59.53;36.47;;;11.00;99.90;;;;;;5079098;28;20507;-58
2023/02/12 10:39:54;;;;;;;59.17;38.10;;;11.00;99.90;;;;;;5081226;28;20436;-59
2023/02/12 10:42:32;;;;;;;65.50;39.90;;;11.00;99.90;;;;;;5081128;28;20437;-58
2023/02/12 10:44:58;;;;;;;63.33;38.50;;;11.00;99.90;;;;;;5081113;28;20460;-57
2023/02/12 10:47:25;;;;;;;64.10;38.33;;;11.10;99.90;;;;;;5081268;28;20457;-57
2023/02/12 10:49:57;;;;;;;61.67;40.67;;;11.10;99.90;;;;;;5075580;28;20495;-57
2023/02/12 10:52:35;;;;;;;63.50;37.90;;;11.20;99.90;;;;;;5075529;28;20432;-58
2023/02/12 10:55:02;;;;;;;66.37;39.40;;;11.20;99.90;;;;;;5075030;28;20522;-58
2023/02/12 10:57:30;;;;;;;67.47;39.87;;;11.20;99.90;;;;;;5075044;28;20560;-57
2023/02/12 11:00:15;;;;;;;62.73;40.20;;;11.20;99.90;;;;;;5075300;28;20482;-58
2023/02/12 11:03:00;;;;;;;69.40;42.30;;;11.30;99.90;;;;;;5075110;28;20444;-57
2023/02/12 11:05:30;;;;;;;62.63;38.80;;;11.30;99.90;;;;;;5074860;28;20926;-57
2023/02/12 11:07:57;;;;;;;71.57;41.47;;;11.30;99.90;;;;;;5074719;28;20964;-58
2023/02/12 11:10:30;;;;;;;65.00;40.33;;;11.40;99.90;;;;;;5074638;28;20456;-58
2023/02/12 11:12:59;;;;;;;58.73;40.47;;;11.40;99.90;;;;;;5075064;28;20429;-58
2023/02/12 11:15:30;;;;;;;62.93;38.83;;;11.50;99.90;;;;;;5074411;28;21007;-57
2023/02/12 11:17:59;;;;;;;57.30;37.93;;;11.50;99.90;;;;;;5074796;28;20476;-58
2023/02/12 11:20:28;;;;;;;65.40;39.97;;;11.60;99.90;;;;;;5074483;28;20921;-58
2023/02/12 11:22:58;;;;;;;66.30;40.07;;;11.60;99.90;;;;;;5073761;28;20916;-58
2023/02/12 11:25:26;;;;;;;60.87;40.20;;;11.60;99.90;;;;;;5074662;28;20472;-58
2023/02/12 11:28:04;;;;;;;61.50;40.80;;;11.70;99.90;;;;;;5074474;28;20429;-58
2023/02/12 11:30:32;;;;;;;68.37;40.70;;;11.70;99.90;;;;;;5074291;28;20913;-58
2023/02/12 11:33:14;;;;;;;58.10;38.27;;;11.80;99.90;;;;;;5074552;28;20436;-58
2023/02/12 11:35:50;;;;;;;65.63;40.80;;;11.80;99.90;;;;;;5074204;28;20839;-57
2023/02/12 11:38:22;;;;;;;61.10;41.30;;;11.90;99.90;;;;;;5074289;28;20468;-57
2023/02/12 11:40:50;;;;;;;58.07;38.77;;;12.00;99.90;;;;;;5074364;28;20429;-58
2023/02/12 11:43:19;;;;;;;64.77;41.63;;;12.00;99.90;;;;;;5074254;28;20608;-58
2023/02/12 11:45:50;;;;;;;61.70;40.80;;;12.00;99.90;;;;;;5074231;28;20480;-58
2023/02/12 11:48:20;;;;;;;59.27;38.50;;;12.10;99.90;;;;;;5073901;28;20473;-58
2023/02/12 11:50:48;;;;;;;58.47;37.67;;;12.10;99.90;;;;;;5075040;28;20452;-58
2023/02/12 11:53:22;;;;;;;55.37;37.53;;;12.20;99.90;;;;;;5073888;28;20440;-57
2023/02/12 11:55:55;;;;;;;61.40;40.60;;;12.20;99.90;;;;;;5073710;28;20476;-58
2023/02/12 11:58:25;;;;;;;59.57;41.07;;;12.30;99.70;;;;;;5073635;28;20844;-58
2023/02/12 12:00:56;;;;;;;55.23;37.40;;;12.30;99.60;;;;;;5073919;28;20820;-58
2023/02/12 12:03:28;;;;;;;55.27;36.17;;;12.40;99.50;;;;;;5074173;28;20429;-56
2023/02/12 12:06:00;;;;;;;59.50;38.90;;;12.50;99.40;;;;;;5074666;28;20469;-57
2023/02/12 12:08:31;;;;;;;59.43;39.47;;;12.50;99.10;;;;;;5073898;28;20429;-58
2023/02/12 12:11:07;;;;;;;55.37;37.73;;;12.50;98.90;;;;;;5073854;28;20429;-59
2023/02/12 12:13:42;;;;;;;59.00;37.13;;;12.60;98.70;;;;;;5073679;28;20439;-58
2023/02/12 12:21:54;;;;;;;55.00;37.17;;;12.80;98.10;;;;;;5073539;28;20404;-58
2023/02/12 12:24:27;;;;;;;52.67;36.37;;;12.80;97.90;;;;;;5073585;28;20475;-59
2023/02/12 12:27:02;;;;;;;56.17;37.60;;;12.90;97.80;;;;;;5073673;28;20436;-58
2023/02/12 12:29:44;;;;;;;52.10;36.77;;;13.00;97.70;;;;;;5073552;28;20490;-58
2023/02/12 12:32:14;;;;;;;54.57;36.87;;;13.10;97.50;;;;;;5073240;28;20928;-58
2023/02/12 12:34:41;;;;;;;56.97;38.70;;;13.10;97.10;;;;;;5073332;28;20479;-58
2023/02/12 12:37:20;;;;;;;52.50;36.53;;;13.10;96.70;;;;;;5073434;28;20460;-58
2023/02/12 12:40:03;;;;;;;51.97;36.13;;;13.20;96.40;;;;;;5073507;28;20429;-58
2023/02/12 12:43:01;;;;;;;53.80;36.53;;;13.20;96.10;;;;;;5073141;28;20515;-58
2023/02/12 12:46:03;;;;;;;49.60;34.67;;;13.30;96.00;;;;;;5072917;28;20988;-57
2023/02/12 12:48:48;;;;;;;50.13;33.67;;;13.30;95.90;;;;;;5073262;28;20799;-58
2023/02/12 12:51:28;;;;;;;48.53;36.87;;;13.40;95.80;;;;;;5073417;28;20782;-58
2023/02/12 12:54:06;;;;;;;52.60;35.67;;;13.40;95.60;;;;;;5073188;28;20432;-58
2023/02/12 12:56:45;;;;;;;47.70;35.33;;;13.40;95.50;;;;;;5073316;28;20441;-58